Impacts METAR Board INFO
IDs:

KEWR - Newark Intl, NJ, US

Updated at: 1811 UTC 18 Feb 2018
Potential Impact None Slight Moderate High
Time18/06Z 18/07Z 18/08Z 18/09Z 18/10Z 18/11Z 18/12Z 18/13Z 18/14Z 18/15Z 18/16Z 18/17Z 18/18Z
VIS4 7 8 10 10 10 10 10 10 10 10 10 10
CIG7 5 5 20 -- -- -- -- -- -- -- -- --
CoverOVCOVCOVCBKNFEWFEWFEWFEWFEWFEWFEWFEWFEW
FltCatIFRIFRIFRMVFRVFRVFRVFRVFRVFRVFRVFRVFRVFR
WXBR------------------------
WDir30300260250270280310350320310300290290
WSpd3 6 8 7 10 6 12 8 14 9 15 12 15
WGst-- -- -- -- -- -- -- -- 21 19 -- 20 19
Raw hourly METARs
KEWR 180558Z 03003KT 4SM BR OVC007 01/01 A2997 RMK AO2 SNE58 P0000 T00060006
KEWR 180651Z 30006KT 7SM BKN005 OVC009 01/00 A2997 RMK AO2 SNE0558 SLP148 P0000 T00110000
KEWR 180751Z 26008KT 8SM BKN005 BKN009 OVC030 01/00 A2998 RMK AO2 SLP151 T00060000
KEWR 180859Z 25007KT 10SM SCT006 BKN020 BKN070 01/00 A3002 RMK AO2 T00110000
KEWR 180951Z 27010KT 10SM FEW012 FEW026 01/M01 A3004 RMK AO2 SLP173 T00111006
KEWR 181051Z 28006KT 10SM FEW020 01/M01 A3008 RMK AO2 SLP186 T00061011
KEWR 181151Z 31012KT 10SM FEW025 01/M02 A3012 RMK AO2 SLP198 60000 70048 931000 4/002 T00111022 10017 20006 51039
KEWR 181251Z 35008KT 10SM FEW030 02/M03 A3017 RMK AO2 SLP217 T00221028
KEWR 181351Z 32014G21KT 10SM FEW030 03/M03 A3022 RMK AO2 SLP232 T00281033
KEWR 181451Z 31009G19KT 10SM FEW034 04/M05 A3026 RMK AO2 SLP247 T00391050 51048
KEWR 181551Z 30015KT 10SM FEW035 04/M05 A3029 RMK AO2 SLP257 T00441050
KEWR 181651Z 29012G20KT 10SM FEW035 05/M04 A3032 RMK AO2 SLP268 T00501044
KEWR 181751Z 29015G19KT 10SM FEW035 06/M04 A3034 RMK AO2 SLP272 4/001 T00611039 10061 20011 51025